sensor_id;sensor_type;location;lat;lon;timestamp;temperature;humidity
21518;DHT22;61765;45.794;24.150;2024-03-02T00:03:05;16.90;57.40
21518;DHT22;61765;45.794;24.150;2024-03-02T00:11:12;17.10;56.40
21518;DHT22;61765;45.794;24.150;2024-03-02T00:19:22;16.70;56.60
21518;DHT22;61765;45.794;24.150;2024-03-02T00:27:27;17.00;57.20
21518;DHT22;61765;45.794;24.150;2024-03-02T00:35:36;17.20;56.20
21518;DHT22;61765;45.794;24.150;2024-03-02T00:43:43;17.20;56.40
21518;DHT22;61765;45.794;24.150;2024-03-02T00:51:53;17.20;56.90
21518;DHT22;61765;45.794;24.150;2024-03-02T01:00:00;17.30;56.80
21518;DHT22;61765;45.794;24.150;2024-03-02T01:08:09;17.40;56.30
21518;DHT22;61765;45.794;24.150;2024-03-02T01:16:15;17.30;56.50
21518;DHT22;61765;45.794;24.150;2024-03-02T01:24:23;17.30;56.50
21518;DHT22;61765;45.794;24.150;2024-03-02T01:32:29;17.20;56.90
21518;DHT22;61765;45.794;24.150;2024-03-02T01:40:38;17.10;57.30
21518;DHT22;61765;45.794;24.150;2024-03-02T01:48:44;17.20;56.60
21518;DHT22;61765;45.794;24.150;2024-03-02T01:56:53;17.10;55.80
21518;DHT22;61765;45.794;24.150;2024-03-02T02:04:58;17.20;55.50
21518;DHT22;61765;45.794;24.150;2024-03-02T02:13:07;17.20;55.10
21518;DHT22;61765;45.794;24.150;2024-03-02T02:21:13;17.00;55.30
21518;DHT22;61765;45.794;24.150;2024-03-02T02:29:21;16.50;55.90
21518;DHT22;61765;45.794;24.150;2024-03-02T02:37:27;16.30;56.30
21518;DHT22;61765;45.794;24.150;2024-03-02T02:45:35;16.50;57.10
21518;DHT22;61765;45.794;24.150;2024-03-02T02:53:41;16.60;56.70
21518;DHT22;61765;45.794;24.150;2024-03-02T03:01:51;16.50;57.10
21518;DHT22;61765;45.794;24.150;2024-03-02T03:09:57;16.30;57.40
21518;DHT22;61765;45.794;24.150;2024-03-02T03:18:06;16.40;57.70
21518;DHT22;61765;45.794;24.150;2024-03-02T03:26:13;16.40;58.30
21518;DHT22;61765;45.794;24.150;2024-03-02T03:34:21;16.20;59.20
21518;DHT22;61765;45.794;24.150;2024-03-02T03:42:27;15.80;60.00
21518;DHT22;61765;45.794;24.150;2024-03-02T03:50:36;15.50;60.70
21518;DHT22;61765;45.794;24.150;2024-03-02T03:58:41;15.50;60.50
21518;DHT22;61765;45.794;24.150;2024-03-02T04:06:50;15.50;59.60
21518;DHT22;61765;45.794;24.150;2024-03-02T04:14:56;15.70;59.30
21518;DHT22;61765;45.794;24.150;2024-03-02T04:23:04;15.50;59.40
21518;DHT22;61765;45.794;24.150;2024-03-02T04:31:10;15.90;58.90
21518;DHT22;61765;45.794;24.150;2024-03-02T04:39:18;15.90;58.30
21518;DHT22;61765;45.794;24.150;2024-03-02T04:47:24;15.80;58.20
21518;DHT22;61765;45.794;24.150;2024-03-02T04:55:33;15.90;58.10
21518;DHT22;61765;45.794;24.150;2024-03-02T05:04:06;16.00;57.40
21518;DHT22;61765;45.794;24.150;2024-03-02T05:12:16;16.00;57.90
21518;DHT22;61765;45.794;24.150;2024-03-02T05:20:50;16.10;57.50
21518;DHT22;61765;45.794;24.150;2024-03-02T05:28:58;16.20;58.10
21518;DHT22;61765;45.794;24.150;2024-03-02T05:37:04;16.40;58.50
21518;DHT22;61765;45.794;24.150;2024-03-02T05:45:12;16.20;58.40
21518;DHT22;61765;45.794;24.150;2024-03-02T05:53:19;16.30;58.30
21518;DHT22;61765;45.794;24.150;2024-03-02T06:01:28;16.50;57.40
21518;DHT22;61765;45.794;24.150;2024-03-02T06:09:34;15.90;58.50
21518;DHT22;61765;45.794;24.150;2024-03-02T06:17:43;15.60;59.60
21518;DHT22;61765;45.794;24.150;2024-03-02T06:25:49;15.80;59.70
21518;DHT22;61765;45.794;24.150;2024-03-02T06:33:57;16.10;59.60
21518;DHT22;61765;45.794;24.150;2024-03-02T06:42:03;16.00;60.30
21518;DHT22;61765;45.794;24.150;2024-03-02T06:50:12;15.40;61.10
21518;DHT22;61765;45.794;24.150;2024-03-02T06:58:18;15.70;61.20
21518;DHT22;61765;45.794;24.150;2024-03-02T07:06:26;15.70;60.90
21518;DHT22;61765;45.794;24.150;2024-03-02T07:14:32;15.80;60.80
21518;DHT22;61765;45.794;24.150;2024-03-02T07:22:52;15.80;60.90
21518;DHT22;61765;45.794;24.150;2024-03-02T07:30:59;16.20;60.20
21518;DHT22;61765;45.794;24.150;2024-03-02T07:39:07;16.30;59.90
21518;DHT22;61765;45.794;24.150;2024-03-02T07:47:13;16.30;59.20
21518;DHT22;61765;45.794;24.150;2024-03-02T07:55:22;16.70;58.80
21518;DHT22;61765;45.794;24.150;2024-03-02T08:03:28;16.90;58.30
21518;DHT22;61765;45.794;24.150;2024-03-02T08:11:37;16.40;58.90
21518;DHT22;61765;45.794;24.150;2024-03-02T08:19:44;16.80;58.40
21518;DHT22;61765;45.794;24.150;2024-03-02T08:27:53;16.60;58.90
21518;DHT22;61765;45.794;24.150;2024-03-02T08:36:00;16.70;59.10
21518;DHT22;61765;45.794;24.150;2024-03-02T08:44:08;17.20;57.80
21518;DHT22;61765;45.794;24.150;2024-03-02T08:52:14;17.10;58.00
21518;DHT22;61765;45.794;24.150;2024-03-02T09:00:23;17.40;57.50
21518;DHT22;61765;45.794;24.150;2024-03-02T09:08:30;17.80;56.50
21518;DHT22;61765;45.794;24.150;2024-03-02T09:16:40;18.10;53.80
21518;DHT22;61765;45.794;24.150;2024-03-02T09:24:46;18.00;49.80
21518;DHT22;61765;45.794;24.150;2024-03-02T09:32:55;18.50;50.00
21518;DHT22;61765;45.794;24.150;2024-03-02T09:41:04;18.60;48.70
21518;DHT22;61765;45.794;24.150;2024-03-02T09:49:12;18.30;48.40
21518;DHT22;61765;45.794;24.150;2024-03-02T09:57:19;18.60;47.70
21518;DHT22;61765;45.794;24.150;2024-03-02T10:05:28;18.80;46.70
21518;DHT22;61765;45.794;24.150;2024-03-02T10:13:33;19.20;46.30
21518;DHT22;61765;45.794;24.150;2024-03-02T10:21:42;19.80;46.00
21518;DHT22;61765;45.794;24.150;2024-03-02T10:29:49;22.10;43.40
21518;DHT22;61765;45.794;24.150;2024-03-02T10:37:59;22.30;41.80
21518;DHT22;61765;45.794;24.150;2024-03-02T10:46:06;23.50;40.60
21518;DHT22;61765;45.794;24.150;2024-03-02T10:54:14;23.20;40.60
21518;DHT22;61765;45.794;24.150;2024-03-02T11:02:21;25.80;38.60
21518;DHT22;61765;45.794;24.150;2024-03-02T11:10:34;25.60;37.20
21518;DHT22;61765;45.794;24.150;2024-03-02T11:18:42;25.60;37.80
21518;DHT22;61765;45.794;24.150;2024-03-02T11:26:51;24.30;38.50
21518;DHT22;61765;45.794;24.150;2024-03-02T11:34:58;23.40;39.90
21518;DHT22;61765;45.794;24.150;2024-03-02T11:43:07;22.90;40.30
21518;DHT22;61765;45.794;24.150;2024-03-02T11:51:13;22.60;41.90
21518;DHT22;61765;45.794;24.150;2024-03-02T11:59:22;22.40;43.60
21518;DHT22;61765;45.794;24.150;2024-03-02T12:07:29;22.70;43.80
21518;DHT22;61765;45.794;24.150;2024-03-02T12:15:38;22.40;44.20
21518;DHT22;61765;45.794;24.150;2024-03-02T12:23:44;22.30;43.40
21518;DHT22;61765;45.794;24.150;2024-03-02T12:31:53;21.80;43.10
21518;DHT22;61765;45.794;24.150;2024-03-02T12:39:59;21.50;43.60
21518;DHT22;61765;45.794;24.150;2024-03-02T12:48:08;21.30;43.90
21518;DHT22;61765;45.794;24.150;2024-03-02T12:56:15;21.70;43.70
21518;DHT22;61765;45.794;24.150;2024-03-02T13:04:28;22.20;42.20
21518;DHT22;61765;45.794;24.150;2024-03-02T13:12:34;22.10;42.20
21518;DHT22;61765;45.794;24.150;2024-03-02T13:20:43;22.30;42.20
21518;DHT22;61765;45.794;24.150;2024-03-02T13:28:49;21.80;42.00
21518;DHT22;61765;45.794;24.150;2024-03-02T13:36:57;21.90;42.20
21518;DHT22;61765;45.794;24.150;2024-03-02T13:45:05;21.80;42.00
21518;DHT22;61765;45.794;24.150;2024-03-02T13:53:14;20.80;43.70
21518;DHT22;61765;45.794;24.150;2024-03-02T14:01:20;21.10;43.20
21518;DHT22;61765;45.794;24.150;2024-03-02T14:09:29;21.40;42.70
21518;DHT22;61765;45.794;24.150;2024-03-02T14:17:35;21.10;43.60
21518;DHT22;61765;45.794;24.150;2024-03-02T14:25:43;21.40;42.70
21518;DHT22;61765;45.794;24.150;2024-03-02T14:33:50;21.00;42.90
21518;DHT22;61765;45.794;24.150;2024-03-02T14:42:00;21.10;43.20
21518;DHT22;61765;45.794;24.150;2024-03-02T14:50:06;21.20;43.80
21518;DHT22;61765;45.794;24.150;2024-03-02T14:58:15;21.30;43.80
21518;DHT22;61765;45.794;24.150;2024-03-02T15:06:22;21.20;43.40
21518;DHT22;61765;45.794;24.150;2024-03-02T15:14:30;21.30;43.30
21518;DHT22;61765;45.794;24.150;2024-03-02T15:22:36;21.00;42.90
21518;DHT22;61765;45.794;24.150;2024-03-02T15:30:45;20.70;45.70
21518;DHT22;61765;45.794;24.150;2024-03-02T15:38:52;20.50;48.90
21518;DHT22;61765;45.794;24.150;2024-03-02T15:47:02;20.40;49.70
21518;DHT22;61765;45.794;24.150;2024-03-02T15:55:08;20.30;51.20
21518;DHT22;61765;45.794;24.150;2024-03-02T16:03:17;19.90;52.00
21518;DHT22;61765;45.794;24.150;2024-03-02T16:11:23;19.60;53.10
21518;DHT22;61765;45.794;24.150;2024-03-02T16:19:31;19.30;54.70
21518;DHT22;61765;45.794;24.150;2024-03-02T16:27:42;19.10;55.80
21518;DHT22;61765;45.794;24.150;2024-03-02T16:35:50;18.90;56.90
21518;DHT22;61765;45.794;24.150;2024-03-02T16:43:56;18.80;57.90
21518;DHT22;61765;45.794;24.150;2024-03-02T16:52:05;18.50;58.30
21518;DHT22;61765;45.794;24.150;2024-03-02T17:00:12;18.50;59.20
21518;DHT22;61765;45.794;24.150;2024-03-02T17:08:21;18.40;59.70
21518;DHT22;61765;45.794;24.150;2024-03-02T17:16:26;18.10;60.40
21518;DHT22;61765;45.794;24.150;2024-03-02T17:24:35;17.80;61.70
21518;DHT22;61765;45.794;24.150;2024-03-02T17:32:41;17.80;61.90
21518;DHT22;61765;45.794;24.150;2024-03-02T17:40:49;17.70;62.10
21518;DHT22;61765;45.794;24.150;2024-03-02T17:48:55;17.50;63.40
21518;DHT22;61765;45.794;24.150;2024-03-02T17:57:03;17.50;63.20
21518;DHT22;61765;45.794;24.150;2024-03-02T18:05:10;17.30;64.00
21518;DHT22;61765;45.794;24.150;2024-03-02T18:13:18;17.30;63.90
21518;DHT22;61765;45.794;24.150;2024-03-02T18:21:24;17.20;64.40
21518;DHT22;61765;45.794;24.150;2024-03-02T18:29:33;17.40;64.30
21518;DHT22;61765;45.794;24.150;2024-03-02T18:37:38;17.30;64.30
21518;DHT22;61765;45.794;24.150;2024-03-02T18:45:50;17.20;64.20
21518;DHT22;61765;45.794;24.150;2024-03-02T18:53:58;17.00;65.00
21518;DHT22;61765;45.794;24.150;2024-03-02T19:02:06;17.10;64.90
21518;DHT22;61765;45.794;24.150;2024-03-02T19:10:12;17.10;65.10
21518;DHT22;61765;45.794;24.150;2024-03-02T19:18:21;17.10;65.30
21518;DHT22;61765;45.794;24.150;2024-03-02T19:26:27;17.00;65.20
21518;DHT22;61765;45.794;24.150;2024-03-02T19:34:35;17.00;65.60
21518;DHT22;61765;45.794;24.150;2024-03-02T19:42:41;17.00;65.50
21518;DHT22;61765;45.794;24.150;2024-03-02T19:50:51;16.80;66.20
21518;DHT22;61765;45.794;24.150;2024-03-02T19:58:57;16.90;66.60
21518;DHT22;61765;45.794;24.150;2024-03-02T20:07:06;16.80;66.10
21518;DHT22;61765;45.794;24.150;2024-03-02T20:15:13;16.90;66.20
21518;DHT22;61765;45.794;24.150;2024-03-02T20:23:23;16.50;65.10
21518;DHT22;61765;45.794;24.150;2024-03-02T20:31:32;16.40;65.50
21518;DHT22;61765;45.794;24.150;2024-03-02T20:39:41;16.20;65.90
21518;DHT22;61765;45.794;24.150;2024-03-02T20:47:46;15.90;67.20
21518;DHT22;61765;45.794;24.150;2024-03-02T20:55:56;15.90;67.10
21518;DHT22;61765;45.794;24.150;2024-03-02T21:04:01;15.90;66.60
21518;DHT22;61765;45.794;24.150;2024-03-02T21:12:10;15.70;67.00
21518;DHT22;61765;45.794;24.150;2024-03-02T21:20:16;15.70;67.50
21518;DHT22;61765;45.794;24.150;2024-03-02T21:28:25;15.60;67.70
21518;DHT22;61765;45.794;24.150;2024-03-02T21:36:30;15.40;67.90
21518;DHT22;61765;45.794;24.150;2024-03-02T21:44:39;15.40;68.30
21518;DHT22;61765;45.794;24.150;2024-03-02T21:52:44;15.30;69.50
21518;DHT22;61765;45.794;24.150;2024-03-02T22:00:58;15.10;70.20
21518;DHT22;61765;45.794;24.150;2024-03-02T22:09:04;15.00;70.40
21518;DHT22;61765;45.794;24.150;2024-03-02T22:17:13;14.90;70.20
21518;DHT22;61765;45.794;24.150;2024-03-02T22:25:19;15.00;69.40
21518;DHT22;61765;45.794;24.150;2024-03-02T22:33:27;14.70;70.30
21518;DHT22;61765;45.794;24.150;2024-03-02T22:41:33;14.90;67.70
21518;DHT22;61765;45.794;24.150;2024-03-02T22:49:42;15.00;65.20
21518;DHT22;61765;45.794;24.150;2024-03-02T22:57:47;14.60;63.50
21518;DHT22;61765;45.794;24.150;2024-03-02T23:05:56;14.20;64.30
21518;DHT22;61765;45.794;24.150;2024-03-02T23:14:02;14.60;62.80
21518;DHT22;61765;45.794;24.150;2024-03-02T23:22:10;14.70;59.90
21518;DHT22;61765;45.794;24.150;2024-03-02T23:30:16;14.20;61.70
21518;DHT22;61765;45.794;24.150;2024-03-02T23:38:26;13.90;61.50
21518;DHT22;61765;45.794;24.150;2024-03-02T23:46:32;13.80;61.60
21518;DHT22;61765;45.794;24.150;2024-03-02T23:54:41;14.10;62.00
